Ohio State University Airport Columbus US
ICAO: KOSU
IATA: OSU
Category: Medium
Scheduled Services: No

Elevation: 905 ft
TransAlt. 18000 ft.

Airport Communications:
COLUMBUS APP/DEP:120.2
ATIS:121.35
CTAF:118.8
GND/CLNC DEL:121.7
TWR:118.8
UNICOM:122.95

KOSU Zoom In..

If you have problems with the map follow the link
https://www.worldairports.se/pages/airport.php?
ICAO=KOSU

Runways:

(A) RW 05 length 3562 ft width 100 ft
---- / hdg 54

(B) RW 09L length 2994 ft width 100 ft
---- / hdg 92

(C) RW 09R length 5004 ft width 100 ft
ILS 108.50 / hdg 92

(D) RW 14 length 3049 ft width 100 ft
---- / hdg 141

(E) RW 23 length 3562 ft width 100 ft
---- / hdg 234

(F) RW 27L length 5004 ft width 100 ft
---- / hdg 272

(G) RW 27R length 2994 ft width 100 ft
---- / hdg 272

(H) RW 32 length 3049 ft width 100 ft
---- / hdg 321

Location; KOSU
Day. 17 / Time. 02.53 Zulu
* Altimeter: 30.12
* Temperature: 03° c. 37.4°f.
* Wind from: 240° Speed 05 kn.
Dewpoint: 01° c.
Visibility: 7 Statute Miles.
Clouds: Overcast 2100 ft.

KOSU 170253Z 24005KT 7SM OVC021 03/01 A3012 RMK AO2 SLP208 T00280006 51012


Wind From 240°
Speed 05 kn.

 
 
jpsmedia.com for Web Design worldairports.se 2018   terms of use